createdAt,value
2022-11-10T00:02:49.442Z,12.68
2022-11-10T00:08:13.890Z,13.27
2022-11-10T00:13:57.636Z,13.07
2022-11-10T00:19:21.512Z,14.20
2022-11-10T00:24:44.960Z,14.83
2022-11-10T00:30:08.315Z,14.07
2022-11-10T00:35:30.363Z,15.20
2022-11-10T00:40:53.623Z,15.77
2022-11-10T00:46:15.904Z,14.00
2022-11-10T00:51:37.488Z,14.27
2022-11-10T00:57:00.470Z,14.43
2022-11-10T01:02:22.300Z,14.33
2022-11-10T01:07:43.928Z,13.98
2022-11-10T01:13:06.812Z,15.05
2022-11-10T01:18:28.533Z,15.18
2022-11-10T01:23:50.242Z,16.60
2022-11-10T01:29:13.130Z,17.43
2022-11-10T01:34:35.030Z,16.30
2022-11-10T01:39:56.916Z,15.70
2022-11-10T01:45:44.488Z,14.73
2022-11-10T01:51:11.295Z,16.02
2022-11-10T01:56:37.588Z,15.83
2022-11-10T02:02:12.402Z,15.02
2022-11-10T02:07:34.561Z,15.50
2022-11-10T02:12:56.441Z,15.00
2022-11-10T02:18:19.987Z,15.13
2022-11-10T02:23:48.634Z,16.40
2022-11-10T02:29:10.230Z,14.90
2022-11-10T02:34:31.773Z,15.70
2022-11-10T02:39:55.038Z,16.63
2022-11-10T02:45:16.956Z,16.13
2022-11-10T02:50:39.330Z,15.80
2022-11-10T02:56:02.551Z,15.32
2022-11-10T03:01:24.409Z,16.10
2022-11-10T03:06:46.520Z,14.02
2022-11-10T03:12:10.018Z,14.55
2022-11-10T03:17:39.163Z,14.17
2022-11-10T03:23:04.649Z,15.43
2022-11-10T03:28:27.725Z,15.03
2022-11-10T03:33:49.562Z,14.43
2022-11-10T03:39:11.517Z,14.15
2022-11-10T03:44:34.878Z,13.88
2022-11-10T03:49:56.769Z,14.55
2022-11-10T03:55:20.980Z,15.97
2022-11-10T04:00:44.196Z,15.90
2022-11-10T04:06:23.627Z,16.13
2022-11-10T04:12:02.566Z,17.23
2022-11-10T04:17:25.724Z,17.63
2022-11-10T04:23:04.558Z,16.15
2022-11-10T04:28:26.397Z,16.15
2022-11-10T04:33:51.092Z,16.33
2022-11-10T04:39:13.004Z,17.40
2022-11-10T04:44:34.519Z,18.63
2022-11-10T04:49:57.574Z,17.13
2022-11-10T04:55:19.206Z,20.57
2022-11-10T05:00:41.791Z,21.27
2022-11-10T05:06:05.580Z,19.23
2022-11-10T05:11:27.189Z,19.80
2022-11-10T05:16:49.341Z,21.37
2022-11-10T05:22:12.392Z,19.65
2022-11-10T05:27:33.905Z,21.17
2022-11-10T05:32:55.424Z,17.77
2022-11-10T05:38:19.014Z,19.40
2022-11-10T05:43:40.967Z,19.40
2022-11-10T05:49:03.800Z,19.77
2022-11-10T05:54:27.060Z,18.92
2022-11-10T05:59:48.764Z,19.15
2022-11-10T06:05:11.756Z,20.00
2022-11-10T06:10:35.553Z,21.55
2022-11-10T06:15:58.803Z,18.70
2022-11-10T06:21:20.677Z,18.63
2022-11-10T06:26:44.101Z,24.07
2022-11-10T06:32:06.068Z,19.77
2022-11-10T06:37:28.090Z,20.03
2022-11-10T06:42:51.230Z,18.98
2022-11-10T06:48:14.591Z,18.58
2022-11-10T06:53:36.268Z,18.90
2022-11-10T06:58:59.321Z,22.05
2022-11-10T07:04:21.329Z,20.92
2022-11-10T07:09:43.361Z,19.10
2022-11-10T07:15:07.062Z,20.30
2022-11-10T07:20:29.317Z,19.40
2022-11-10T07:25:51.349Z,18.60
2022-11-10T07:31:14.777Z,16.30
2022-11-10T07:36:36.346Z,11.57
2022-11-10T07:41:58.188Z,8.90
2022-11-10T07:47:21.430Z,11.90
2022-11-10T07:52:43.425Z,10.15
2022-11-10T07:58:05.639Z,9.60
2022-11-10T08:03:28.927Z,10.27
2022-11-10T08:08:50.767Z,8.95
2022-11-10T08:14:12.546Z,10.82
2022-11-10T08:19:35.826Z,11.17
2022-11-10T08:24:57.549Z,8.25
2022-11-10T08:30:19.798Z,9.75
2022-11-10T08:35:44.431Z,10.82
2022-11-10T08:41:06.677Z,10.05
2022-11-10T08:46:28.133Z,10.02
2022-11-10T08:51:51.352Z,11.00
2022-11-10T08:57:13.182Z,10.05
2022-11-10T09:02:35.026Z,7.97
2022-11-10T09:07:58.359Z,7.40
2022-11-10T09:13:26.357Z,7.35
2022-11-10T09:18:51.050Z,5.10
2022-11-10T09:24:14.049Z,4.65
2022-11-10T09:34:57.562Z,4.22
2022-11-10T09:40:25.001Z,4.10
2022-11-10T09:45:50.586Z,3.60
2022-11-10T09:51:20.397Z,3.10
2022-11-10T09:56:43.677Z,4.05
2022-11-10T10:02:10.317Z,3.70
2022-11-10T10:07:38.313Z,2.80
2022-11-10T10:13:24.891Z,2.80
2022-11-10T10:18:56.704Z,2.92
2022-11-10T10:24:22.492Z,4.70
2022-11-10T10:35:13.273Z,2.60
2022-11-10T10:40:35.304Z,1.98
2022-11-10T10:46:09.272Z,1.80
2022-11-10T10:51:32.560Z,2.80
2022-11-10T10:57:03.842Z,1.88
2022-11-10T11:02:29.292Z,2.00
2022-11-10T11:07:56.453Z,2.40
2022-11-10T11:13:24.676Z,1.70
2022-11-10T11:18:48.061Z,1.95
2022-11-10T11:24:22.146Z,1.98
2022-11-10T11:29:57.528Z,2.55
2022-11-10T11:35:26.845Z,2.13
2022-11-10T11:40:52.902Z,2.20
2022-11-10T11:46:25.807Z,2.03
2022-11-10T11:51:55.732Z,1.95
2022-11-10T11:57:28.902Z,2.00
2022-11-10T12:03:21.941Z,1.42
2022-11-10T12:08:53.152Z,1.70
2022-11-10T12:25:20.666Z,3.70
2022-11-10T12:30:44.749Z,2.92
2022-11-10T12:36:12.855Z,1.95
2022-11-10T12:41:41.178Z,1.67
2022-11-10T12:47:07.382Z,1.80
2022-11-10T13:08:46.928Z,1.60
2022-11-10T13:14:26.954Z,1.70
2022-11-10T13:19:53.401Z,2.53
2022-11-10T13:25:53.402Z,1.30
2022-11-10T13:31:52.225Z,1.40
2022-11-10T13:37:50.679Z,1.80
2022-11-10T13:43:27.771Z,1.50
2022-11-10T13:49:20.311Z,1.42
2022-11-10T13:55:15.913Z,1.60
2022-11-10T14:06:18.780Z,1.20
2022-11-10T14:11:49.548Z,1.00
2022-11-10T14:17:18.928Z,0.88
2022-11-10T14:22:44.269Z,0.90
2022-11-10T14:28:28.609Z,1.50
2022-11-10T14:33:58.313Z,4.97
2022-11-10T14:44:44.591Z,3.15
2022-11-10T14:50:19.747Z,9.37
2022-11-10T14:55:48.475Z,2.08
2022-11-10T15:01:26.481Z,2.55
2022-11-10T15:06:50.389Z,3.10
2022-11-10T15:12:27.990Z,1.98
2022-11-10T15:17:51.536Z,3.45
2022-11-10T15:23:23.584Z,3.40
2022-11-10T15:28:48.092Z,2.33
2022-11-10T15:34:31.285Z,1.60
2022-11-10T15:39:53.465Z,2.20
2022-11-10T15:45:17.328Z,3.17
2022-11-10T15:50:39.458Z,4.72
2022-11-10T15:56:00.969Z,4.47
2022-11-10T16:01:24.270Z,3.55
2022-11-10T16:06:47.143Z,4.93
2022-11-10T16:12:17.521Z,11.00
2022-11-10T16:17:41.054Z,16.00
2022-11-10T16:23:02.753Z,15.75
2022-11-10T16:28:26.948Z,15.52
2022-11-10T16:33:50.851Z,11.20
2022-11-10T16:39:15.292Z,10.25
2022-11-10T16:44:41.387Z,14.75
2022-11-10T16:50:11.137Z,66.60
2022-11-10T16:55:33.424Z,40.08
2022-11-10T17:01:00.173Z,45.03
2022-11-10T17:06:25.979Z,66.10
2022-11-10T17:11:47.777Z,16.35
2022-11-10T17:17:16.005Z,23.07
2022-11-10T17:22:39.520Z,19.73
2022-11-10T17:28:01.677Z,13.35
2022-11-10T17:33:23.860Z,15.02
2022-11-10T17:38:47.590Z,10.40
2022-11-10T17:44:14.203Z,10.35
2022-11-10T17:49:35.832Z,19.92
2022-11-10T17:54:58.940Z,20.17
2022-11-10T18:00:21.160Z,28.20
2022-11-10T18:05:43.951Z,14.20
2022-11-10T18:11:07.485Z,15.45
2022-11-10T18:16:29.484Z,17.25
2022-11-10T18:21:51.280Z,12.35
2022-11-10T18:27:14.346Z,11.27
2022-11-10T18:32:36.049Z,9.93
2022-11-10T18:37:58.578Z,9.90
2022-11-10T18:43:21.896Z,12.35
2022-11-10T18:48:45.854Z,13.00
2022-11-10T18:54:08.437Z,11.52
2022-11-10T18:59:31.821Z,11.48
2022-11-10T19:04:53.979Z,10.15
2022-11-10T19:10:16.055Z,9.17
2022-11-10T19:15:42.991Z,10.20
2022-11-10T19:21:08.343Z,9.60
2022-11-10T19:26:30.470Z,12.30
2022-11-10T19:31:53.515Z,12.70
2022-11-10T19:37:15.477Z,16.70
2022-11-10T19:42:37.175Z,17.57
2022-11-10T19:48:00.899Z,18.63
2022-11-10T19:53:23.265Z,16.63
2022-11-10T19:58:46.390Z,14.68
2022-11-10T20:04:09.978Z,14.93
2022-11-10T20:09:32.036Z,14.85
2022-11-10T20:14:53.692Z,13.88
2022-11-10T20:20:17.580Z,15.07
2022-11-10T20:25:40.550Z,15.60
2022-11-10T20:31:02.369Z,14.70
2022-11-10T20:36:27.392Z,13.40
2022-11-10T20:41:50.760Z,17.13
2022-11-10T20:47:12.792Z,16.75
2022-11-10T20:52:36.739Z,17.57
2022-11-10T20:57:58.689Z,19.10
2022-11-10T21:03:21.038Z,17.50
2022-11-10T21:08:44.511Z,20.83
2022-11-10T21:14:06.441Z,23.15
2022-11-10T21:19:28.215Z,26.40
2022-11-10T21:24:51.726Z,21.92
2022-11-10T21:30:22.720Z,19.73
2022-11-10T21:35:45.090Z,17.25
2022-11-10T21:41:08.131Z,13.98
2022-11-10T21:46:30.256Z,13.73
2022-11-10T21:51:53.561Z,14.77
2022-11-10T21:57:16.653Z,14.95
2022-11-10T22:02:38.512Z,13.63
2022-11-10T22:08:00.156Z,16.55
2022-11-10T22:13:40.761Z,15.98
2022-11-10T22:19:02.837Z,16.40
2022-11-10T22:24:24.565Z,13.13
2022-11-10T22:29:47.645Z,12.25
2022-11-10T22:35:31.145Z,14.60
2022-11-10T22:41:10.682Z,15.10
2022-11-10T22:46:35.690Z,12.00
2022-11-10T22:51:57.525Z,12.50
2022-11-10T22:57:19.732Z,10.82
2022-11-10T23:02:43.034Z,9.85
2022-11-10T23:08:04.564Z,7.10
2022-11-10T23:13:26.960Z,8.17
2022-11-10T23:18:51.367Z,10.85
2022-11-10T23:24:14.550Z,12.07
2022-11-10T23:29:37.661Z,11.53
2022-11-10T23:35:01.060Z,12.20
2022-11-10T23:40:22.764Z,14.27
2022-11-10T23:46:05.958Z,15.75
2022-11-10T23:51:27.798Z,12.80
2022-11-10T23:56:49.436Z,11.77
